map of KNA home
Great Circle Mapper logo
KNA - Airport
Location
City:  Viña del Mar, Valparaíso, Chile
Name:Viña del Mar Airport
ICAO:SCVM
IATA:KNA

Details
Type:Airport (Aerodrome, Airfield)
Use:Public/Civil
Latitude:32°56'59"S (-32.949721)
Longitude:71°28'43"W (-71.478610)
Elevation:461 ft (141 m)
Variation:2.43°E (WMM2015 magnetic declination)
-0.15° annual change
Runways:1
Longest:5741 × 98 ft (1750 × 30 m), paved

Time
Time Zone:UTC-4 (DST-3)

Weather
METAR:SCVM 301800Z 33006KT CAVOK 26/17 Q1008

Related Locations
Nearby:
Farthest:AKA: 12421 mi / 19989 km
Ankang, 61, CN

Find:

   beyond  
but within

Other Information
Maps:
NOTAMs:
Links:
Sources:

  
flag of Chile
flag of Valparaíso
  

Sectional Chart

Flight Planning
at skyvector.com

Satellite Image

Google Maps Satellite view

 

Copyright © 2004-2016 Karl L. Swartz. All rights reserved.
The Great Circle Mapper name and logo are trademarks of the Great Circle Mapper.
All other trademarks mentioned herein belong to their respective owners.
Please see credits for attibutions and further copyright information.

  Follow gcmap on Facebook Follow gcmap on Twitter Follow gcmap on Google+ GCmap on LinkedIn

hCard Microformat

Geo Microformat